KISP/ISP METAR and TAF weather

Enter ICAO airport designator
Station Type Date Time Source
KISP METAR 2020/09/27 00:17 UTC NOAA

KISP 270017Z 12006KT 10SM SCT008 SCT050 BKN180 20/19 A3006 RMK AO2 T02000194


Station Type Date Time Source
KISP Decoded METAR 2020/09/27 00:17 UTC NOAA

ISLIP LONG ISLAND MAC ART, NY, United States (KISP) 40-48N 073-06W 43M
Sep 26, 2020 - 08:17 PM EDT / 2020.09.27 0017 UTC
Wind: from the ESE (120 degrees) at 7 MPH (6 KT):0
Visibility: 10 mile(s):0
Sky conditions: mostly cloudy
Temperature: 68.0 F (20.0 C)
Dew Point: 66.9 F (19.4 C)
Relative Humidity: 96%
Pressure (altimeter): 30.06 in. Hg (1017 hPa)
ob: KISP 270017Z 12006KT 10SM SCT008 SCT050 BKN180 20/19 A3006 RMK AO2 T02000194
cycle: 0

Station Type Date Time Source
KISP TAF 2020/09/26 20:54 UTC NOAA

TAF
AMD KISP 261951Z 2620/2718 14009KT P6SM SCT020 SCT035
TEMPO 2621/2701 BKN020
FM270100 15007KT P6SM BKN012
FM270200 VRB03KT 3SM BR OVC005
FM271600 13008KT P6SM VCSH BKN015

Example: see airport list